createdAt,value
2023-05-09T00:00:07.413Z,464.00
2023-05-09T00:01:08.779Z,464.00
2023-05-09T00:02:09.218Z,466.00
2023-05-09T00:03:10.179Z,461.00
2023-05-09T00:04:11.005Z,467.00
2023-05-09T00:05:12.179Z,465.00
2023-05-09T00:06:12.670Z,466.00
2023-05-09T00:07:13.632Z,470.00
2023-05-09T00:08:14.531Z,470.00
2023-05-09T00:09:15.413Z,468.00
2023-05-09T00:10:16.281Z,469.00
2023-05-09T00:11:17.138Z,478.00
2023-05-09T00:12:18.017Z,473.00
2023-05-09T00:13:19.113Z,468.00
2023-05-09T00:14:19.482Z,465.00
2023-05-09T00:15:20.337Z,466.00
2023-05-09T00:16:21.224Z,465.00
2023-05-09T00:17:22.099Z,463.00
2023-05-09T00:18:22.963Z,460.00
2023-05-09T00:19:23.851Z,461.00
2023-05-09T00:20:24.756Z,461.00
2023-05-09T00:21:25.612Z,460.00
2023-05-09T00:22:26.484Z,461.00
2023-05-09T00:23:27.389Z,462.00
2023-05-09T00:24:28.255Z,461.00
2023-05-09T00:25:29.408Z,466.00
2023-05-09T00:26:29.805Z,465.00
2023-05-09T00:27:30.714Z,462.00
2023-05-09T00:28:31.752Z,467.00
2023-05-09T00:29:32.080Z,464.00
2023-05-09T00:30:32.946Z,468.00
2023-05-09T00:31:33.831Z,469.00
2023-05-09T00:32:34.722Z,469.00
2023-05-09T00:33:35.611Z,469.00
2023-05-09T00:34:36.481Z,472.00
2023-05-09T00:35:37.350Z,466.00
2023-05-09T00:36:38.212Z,462.00
2023-05-09T00:37:39.084Z,466.00
2023-05-09T00:38:39.990Z,461.00
2023-05-09T00:39:40.875Z,463.00
2023-05-09T00:40:41.729Z,464.00
2023-05-09T00:41:42.610Z,467.00
2023-05-09T00:42:43.487Z,466.00
2023-05-09T00:43:44.507Z,465.00
2023-05-09T00:44:45.319Z,467.00
2023-05-09T00:45:46.227Z,468.00
2023-05-09T00:46:47.111Z,464.00
2023-05-09T00:47:47.995Z,466.00
2023-05-09T00:48:48.866Z,467.00
2023-05-09T00:49:49.754Z,465.00
2023-05-09T00:50:50.653Z,467.00
2023-05-09T00:51:51.527Z,466.00
2023-05-09T00:52:52.399Z,469.00
2023-05-09T00:53:53.303Z,469.00
2023-05-09T00:54:54.177Z,467.00
2023-05-09T00:55:55.062Z,470.00
2023-05-09T00:56:55.930Z,466.00
2023-05-09T00:57:56.805Z,465.00
2023-05-09T00:58:57.833Z,462.00
2023-05-09T00:59:58.653Z,462.00
2023-05-09T01:00:59.546Z,461.00
2023-05-09T01:02:00.391Z,460.00
2023-05-09T01:03:01.366Z,461.00
2023-05-09T01:04:02.257Z,467.00
2023-05-09T01:05:03.124Z,472.00
2023-05-09T01:06:04.019Z,470.00
2023-05-09T01:07:04.891Z,466.00
2023-05-09T01:08:05.760Z,464.00
2023-05-09T01:09:06.654Z,457.00
2023-05-09T01:10:08.837Z,468.00
2023-05-09T01:11:08.207Z,466.00
2023-05-09T01:12:09.099Z,464.00
2023-05-09T01:13:09.957Z,455.00
2023-05-09T01:14:10.954Z,454.00
2023-05-09T01:15:11.972Z,455.00
2023-05-09T01:16:12.618Z,456.00
2023-05-09T01:17:13.460Z,456.00
2023-05-09T01:18:14.399Z,457.00
2023-05-09T01:19:14.870Z,459.00
2023-05-09T01:20:15.733Z,460.00
2023-05-09T01:21:16.595Z,461.00
2023-05-09T01:22:17.486Z,459.00
2023-05-09T01:23:18.370Z,464.00
2023-05-09T01:24:19.266Z,467.00
2023-05-09T01:25:20.185Z,459.00
2023-05-09T01:26:21.029Z,466.00
2023-05-09T01:27:21.920Z,464.00
2023-05-09T01:28:22.780Z,463.00
2023-05-09T01:29:23.811Z,461.00
2023-05-09T01:30:24.654Z,461.00
2023-05-09T01:31:25.529Z,462.00
2023-05-09T01:32:26.388Z,461.00
2023-05-09T01:33:27.248Z,460.00
2023-05-09T01:34:28.134Z,460.00
2023-05-09T01:35:29.003Z,458.00
2023-05-09T01:36:29.877Z,454.00
2023-05-09T01:37:30.774Z,456.00
2023-05-09T01:38:31.634Z,460.00
2023-05-09T01:39:32.523Z,459.00
2023-05-09T01:40:33.386Z,461.00
2023-05-09T01:41:34.256Z,459.00
2023-05-09T01:42:35.119Z,459.00
2023-05-09T01:43:36.072Z,461.00
2023-05-09T01:44:37.050Z,479.00
2023-05-09T01:45:37.887Z,467.00
2023-05-09T01:46:38.785Z,469.00
2023-05-09T01:47:39.664Z,469.00
2023-05-09T01:48:40.497Z,466.00
2023-05-09T01:49:42.709Z,469.00
2023-05-09T01:50:42.073Z,465.00
2023-05-09T01:51:43.846Z,464.00
2023-05-09T01:52:43.859Z,463.00
2023-05-09T01:53:44.740Z,463.00
2023-05-09T01:54:45.628Z,468.00
2023-05-09T01:55:46.518Z,466.00
2023-05-09T01:56:47.384Z,465.00
2023-05-09T01:57:48.277Z,464.00
2023-05-09T01:58:49.152Z,462.00
2023-05-09T01:59:50.166Z,459.00
2023-05-09T02:00:51.047Z,461.00
2023-05-09T02:01:51.889Z,461.00
2023-05-09T02:02:52.946Z,463.00
2023-05-09T02:03:53.458Z,462.00
2023-05-09T02:04:54.350Z,461.00
2023-05-09T02:05:55.204Z,458.00
2023-05-09T02:06:56.088Z,459.00
2023-05-09T02:07:56.948Z,463.00
2023-05-09T02:08:57.832Z,465.00
2023-05-09T02:09:58.714Z,460.00
2023-05-09T02:10:59.647Z,461.00
2023-05-09T02:12:00.501Z,462.00
2023-05-09T02:13:01.448Z,460.00
2023-05-09T02:14:02.323Z,461.00
2023-05-09T02:15:03.344Z,460.00
2023-05-09T02:16:04.156Z,459.00
2023-05-09T02:17:05.132Z,456.00
2023-05-09T02:18:06.107Z,456.00
2023-05-09T02:19:07.235Z,457.00
2023-05-09T02:20:07.644Z,454.00
2023-05-09T02:21:08.545Z,454.00
2023-05-09T02:22:09.384Z,455.00
2023-05-09T02:23:10.294Z,457.00
2023-05-09T02:24:11.161Z,457.00
2023-05-09T02:25:12.250Z,461.00
2023-05-09T02:26:12.692Z,461.00
2023-05-09T02:27:13.557Z,460.00
2023-05-09T02:28:14.433Z,459.00
2023-05-09T02:29:15.356Z,458.00
2023-05-09T02:30:16.383Z,457.00
2023-05-09T02:31:16.705Z,458.00
2023-05-09T02:32:17.591Z,457.00
2023-05-09T02:33:18.468Z,458.00
2023-05-09T02:34:19.346Z,458.00
2023-05-09T02:35:20.279Z,454.00
2023-05-09T02:36:21.140Z,457.00
2023-05-09T02:37:22.004Z,458.00
2023-05-09T02:38:22.874Z,461.00
2023-05-09T02:39:23.737Z,463.00
2023-05-09T02:40:24.629Z,462.00
2023-05-09T02:41:25.540Z,462.00
2023-05-09T02:42:26.395Z,466.00
2023-05-09T02:43:27.253Z,461.00
2023-05-09T02:44:28.126Z,462.00
2023-05-09T02:45:29.149Z,458.00
2023-05-09T02:46:30.033Z,462.00
2023-05-09T02:47:30.913Z,463.00
2023-05-09T02:48:31.777Z,461.00
2023-05-09T02:49:32.958Z,463.00
2023-05-09T02:50:33.305Z,466.00
2023-05-09T02:51:34.176Z,466.00
2023-05-09T02:52:35.037Z,467.00
2023-05-09T02:53:35.919Z,466.00
2023-05-09T02:54:36.826Z,465.00
2023-05-09T02:55:37.705Z,462.00
2023-05-09T02:56:38.586Z,464.00
2023-05-09T02:57:39.530Z,463.00
2023-05-09T02:58:40.345Z,468.00
2023-05-09T02:59:41.214Z,468.00
2023-05-09T03:00:42.236Z,468.00
2023-05-09T03:01:43.103Z,466.00
2023-05-09T03:02:44.000Z,468.00
2023-05-09T03:03:44.936Z,465.00
2023-05-09T03:04:45.398Z,464.00
2023-05-09T03:05:46.333Z,459.00
2023-05-09T03:06:47.169Z,462.00
2023-05-09T03:07:48.052Z,463.00
2023-05-09T03:08:48.911Z,461.00
2023-05-09T03:09:49.801Z,463.00
2023-05-09T03:10:50.690Z,461.00
2023-05-09T03:11:51.587Z,459.00
2023-05-09T03:12:52.498Z,457.00
2023-05-09T03:13:53.328Z,458.00
2023-05-09T03:14:54.215Z,461.00
2023-05-09T03:15:55.262Z,463.00
2023-05-09T03:16:55.583Z,461.00
2023-05-09T03:17:56.502Z,464.00
2023-05-09T03:18:57.423Z,465.00
2023-05-09T03:19:58.310Z,467.00
2023-05-09T03:20:59.231Z,459.00
2023-05-09T03:22:00.158Z,454.00
2023-05-09T03:23:01.009Z,456.00
2023-05-09T03:24:01.889Z,458.00
2023-05-09T03:25:02.785Z,458.00
2023-05-09T03:26:03.647Z,458.00
2023-05-09T03:27:04.530Z,460.00
2023-05-09T03:28:05.423Z,462.00
2023-05-09T03:29:06.337Z,459.00
2023-05-09T03:30:07.170Z,459.00
2023-05-09T03:31:08.249Z,455.00
2023-05-09T03:32:08.601Z,457.00
2023-05-09T03:33:09.518Z,454.00
2023-05-09T03:34:10.384Z,453.00
2023-05-09T03:35:11.262Z,455.00
2023-05-09T03:36:12.155Z,454.00
2023-05-09T03:37:13.039Z,458.00
2023-05-09T03:38:13.949Z,454.00
2023-05-09T03:39:14.818Z,458.00
2023-05-09T03:40:15.687Z,457.00
2023-05-09T03:41:16.591Z,460.00
2023-05-09T03:42:17.474Z,458.00
2023-05-09T03:43:18.343Z,458.00
2023-05-09T03:44:19.251Z,461.00
2023-05-09T03:45:20.088Z,461.00
2023-05-09T03:46:21.145Z,463.00
2023-05-09T03:47:21.484Z,463.00
2023-05-09T03:48:22.391Z,462.00
2023-05-09T03:49:23.275Z,464.00
2023-05-09T03:50:24.157Z,463.00
2023-05-09T03:51:25.043Z,464.00
2023-05-09T03:52:25.898Z,463.00
2023-05-09T03:53:26.767Z,466.00
2023-05-09T03:54:27.647Z,467.00
2023-05-09T03:55:28.507Z,470.00
2023-05-09T03:56:29.405Z,472.00
2023-05-09T03:57:30.284Z,471.00
2023-05-09T03:58:31.167Z,477.00
2023-05-09T03:59:32.039Z,470.00
2023-05-09T04:00:32.912Z,466.00
2023-05-09T04:01:33.989Z,466.00
2023-05-09T04:02:34.479Z,463.00
2023-05-09T04:03:35.009Z,464.00
2023-05-09T04:04:35.410Z,463.00
2023-05-09T04:05:36.285Z,465.00
2023-05-09T04:06:37.175Z,464.00
2023-05-09T04:07:38.056Z,462.00
2023-05-09T04:08:38.952Z,464.00
2023-05-09T04:09:39.857Z,458.00
2023-05-09T04:10:40.704Z,457.00
2023-05-09T04:11:41.613Z,456.00
2023-05-09T04:12:42.493Z,457.00
2023-05-09T04:13:43.372Z,455.00
2023-05-09T04:14:46.156Z,459.00
2023-05-09T04:15:51.381Z,458.00
2023-05-09T04:16:45.910Z,459.00
2023-05-09T04:17:46.303Z,460.00
2023-05-09T04:18:47.187Z,460.00
2023-05-09T04:19:48.071Z,464.00
2023-05-09T04:20:48.928Z,463.00
2023-05-09T04:21:49.871Z,457.00
2023-05-09T04:22:50.711Z,458.00
2023-05-09T04:23:51.592Z,458.00
2023-05-09T04:24:52.459Z,458.00
2023-05-09T04:25:53.348Z,452.00
2023-05-09T04:26:54.236Z,457.00
2023-05-09T04:27:55.150Z,453.00
2023-05-09T04:28:55.984Z,454.00
2023-05-09T04:29:56.860Z,458.00
2023-05-09T04:30:57.823Z,458.00
2023-05-09T04:31:58.924Z,453.00
2023-05-09T04:32:59.295Z,453.00
2023-05-09T04:34:00.179Z,455.00
2023-05-09T04:35:01.026Z,455.00
2023-05-09T04:36:01.899Z,456.00
2023-05-09T04:37:02.813Z,455.00
2023-05-09T04:38:03.687Z,454.00
2023-05-09T04:39:04.563Z,456.00
2023-05-09T04:40:05.443Z,455.00
2023-05-09T04:41:06.331Z,456.00
2023-05-09T04:42:07.226Z,454.00
2023-05-09T04:43:08.101Z,452.00
2023-05-09T04:44:08.942Z,455.00
2023-05-09T04:45:09.812Z,457.00
2023-05-09T04:46:10.720Z,456.00
2023-05-09T04:47:11.711Z,454.00
2023-05-09T04:48:12.527Z,450.00
2023-05-09T04:49:13.690Z,450.00
2023-05-09T04:50:14.055Z,448.00
2023-05-09T04:51:14.931Z,452.00
2023-05-09T04:52:15.832Z,457.00
2023-05-09T04:53:16.719Z,465.00
2023-05-09T04:54:17.610Z,458.00
2023-05-09T04:55:18.462Z,456.00
2023-05-09T04:56:19.365Z,454.00
2023-05-09T04:57:20.245Z,455.00
2023-05-09T04:58:21.874Z,458.00
2023-05-09T04:59:21.740Z,457.00
2023-05-09T05:00:22.629Z,459.00
2023-05-09T05:01:23.546Z,457.00
2023-05-09T05:02:24.572Z,459.00
2023-05-09T05:03:24.924Z,458.00
2023-05-09T05:04:25.825Z,458.00
2023-05-09T05:05:26.897Z,455.00
2023-05-09T05:06:27.484Z,455.00
2023-05-09T05:07:28.375Z,456.00
2023-05-09T05:08:29.267Z,454.00
2023-05-09T05:09:30.124Z,452.00
2023-05-09T05:10:30.998Z,452.00
2023-05-09T05:11:31.856Z,449.00
2023-05-09T05:12:32.752Z,448.00
2023-05-09T05:13:33.657Z,448.00
2023-05-09T05:14:34.495Z,451.00
2023-05-09T05:15:35.373Z,450.00
2023-05-09T05:16:36.252Z,448.00
2023-05-09T05:17:37.331Z,446.00
2023-05-09T05:18:37.680Z,451.00
2023-05-09T05:19:38.839Z,450.00
2023-05-09T05:20:39.210Z,452.00
2023-05-09T05:21:40.091Z,455.00
2023-05-09T05:22:41.015Z,455.00
2023-05-09T05:23:41.885Z,459.00
2023-05-09T05:24:42.769Z,453.00
2023-05-09T05:25:43.668Z,457.00
2023-05-09T05:26:44.531Z,453.00
2023-05-09T05:27:45.432Z,451.00
2023-05-09T05:28:46.298Z,450.00
2023-05-09T05:29:47.185Z,446.00
2023-05-09T05:30:48.043Z,446.00
2023-05-09T05:31:48.996Z,446.00
2023-05-09T05:32:50.094Z,447.00
2023-05-09T05:33:50.448Z,446.00
2023-05-09T05:34:51.325Z,444.00
2023-05-09T05:35:52.196Z,445.00
2023-05-09T05:36:53.067Z,447.00
2023-05-09T05:37:54.000Z,449.00
2023-05-09T05:38:54.853Z,452.00
2023-05-09T05:39:55.777Z,451.00
2023-05-09T05:40:56.850Z,448.00
2023-05-09T05:41:57.328Z,446.00
2023-05-09T05:42:58.240Z,446.00
2023-05-09T05:43:59.123Z,448.00
2023-05-09T05:44:59.993Z,449.00
2023-05-09T05:46:00.954Z,451.00
2023-05-09T05:47:01.788Z,453.00
2023-05-09T05:48:02.978Z,458.00
2023-05-09T05:49:03.410Z,455.00
2023-05-09T05:50:04.317Z,456.00
2023-05-09T05:51:05.259Z,456.00
2023-05-09T05:52:05.620Z,456.00
2023-05-09T05:53:06.566Z,455.00
2023-05-09T05:54:08.466Z,451.00
2023-05-09T05:55:08.894Z,451.00
2023-05-09T05:56:09.313Z,448.00
2023-05-09T05:57:10.157Z,450.00
2023-05-09T05:58:11.061Z,450.00
2023-05-09T05:59:13.500Z,450.00
2023-05-09T06:00:12.547Z,455.00
2023-05-09T06:01:13.477Z,454.00
2023-05-09T06:02:14.467Z,456.00
2023-05-09T06:03:15.532Z,471.00
2023-05-09T06:04:15.976Z,454.00
2023-05-09T06:05:16.676Z,452.00
2023-05-09T06:06:17.179Z,445.00
2023-05-09T06:07:18.104Z,442.00
2023-05-09T06:08:19.027Z,449.00
2023-05-09T06:09:19.998Z,449.00
2023-05-09T06:10:20.436Z,449.00
2023-05-09T06:11:21.463Z,448.00
2023-05-09T06:12:21.865Z,447.00
2023-05-09T06:13:22.907Z,458.00
2023-05-09T06:14:23.414Z,453.00
2023-05-09T06:15:23.813Z,455.00
2023-05-09T06:16:24.845Z,457.00
2023-05-09T06:17:25.770Z,453.00
2023-05-09T06:18:26.792Z,467.00
2023-05-09T06:19:28.386Z,459.00
2023-05-09T06:20:28.694Z,456.00
2023-05-09T06:21:29.130Z,458.00
2023-05-09T06:22:30.099Z,457.00
2023-05-09T06:23:31.058Z,458.00
2023-05-09T06:24:35.882Z,453.00
2023-05-09T06:25:33.075Z,453.00
2023-05-09T06:26:33.446Z,450.00
2023-05-09T06:27:34.316Z,452.00
2023-05-09T06:28:35.238Z,452.00
2023-05-09T06:29:36.151Z,453.00
2023-05-09T06:30:37.132Z,452.00
2023-05-09T06:31:37.600Z,453.00
2023-05-09T06:32:38.605Z,454.00
2023-05-09T06:33:39.398Z,453.00
2023-05-09T06:34:39.611Z,454.00
2023-05-09T06:35:40.496Z,455.00
2023-05-09T06:36:41.440Z,460.00
2023-05-09T06:37:42.301Z,459.00
2023-05-09T06:38:43.221Z,460.00
2023-05-09T06:39:44.131Z,459.00
2023-05-09T06:40:44.999Z,457.00
2023-05-09T06:41:45.873Z,455.00
2023-05-09T06:42:46.755Z,455.00
2023-05-09T06:43:48.071Z,452.00
2023-05-09T06:44:48.359Z,451.00
2023-05-09T06:45:49.182Z,455.00
2023-05-09T06:46:49.588Z,459.00
2023-05-09T06:47:50.518Z,463.00
2023-05-09T06:48:51.429Z,461.00
2023-05-09T06:49:52.352Z,457.00
2023-05-09T06:50:53.251Z,458.00
2023-05-09T06:51:54.137Z,456.00
2023-05-09T06:52:55.030Z,458.00
2023-05-09T06:53:55.979Z,458.00
2023-05-09T06:54:57.217Z,455.00
2023-05-09T06:55:57.625Z,456.00
2023-05-09T06:56:58.583Z,457.00
2023-05-09T06:57:59.470Z,453.00
2023-05-09T06:59:00.456Z,457.00
2023-05-09T07:00:01.178Z,459.00
2023-05-09T07:01:02.161Z,457.00
2023-05-09T07:02:02.679Z,456.00
2023-05-09T07:03:03.826Z,448.00
2023-05-09T07:04:04.717Z,455.00
2023-05-09T07:05:05.224Z,456.00
2023-05-09T07:06:06.198Z,457.00
2023-05-09T07:07:07.095Z,458.00
2023-05-09T07:08:08.006Z,454.00
2023-05-09T07:09:09.012Z,450.00
2023-05-09T07:10:11.824Z,449.00
2023-05-09T07:11:10.769Z,452.00
2023-05-09T07:12:11.707Z,450.00
2023-05-09T07:13:12.252Z,449.00
2023-05-09T07:14:12.710Z,456.00
2023-05-09T07:15:15.519Z,459.00
2023-05-09T07:16:14.381Z,459.00
2023-05-09T07:17:22.796Z,458.00
2023-05-09T07:18:16.526Z,458.00
2023-05-09T07:19:16.599Z,461.00
2023-05-09T07:20:16.947Z,460.00
2023-05-09T07:21:19.513Z,461.00
2023-05-09T07:22:18.437Z,463.00
2023-05-09T07:23:19.292Z,459.00
2023-05-09T07:24:20.226Z,459.00
2023-05-09T07:25:21.150Z,459.00
2023-05-09T07:26:22.051Z,462.00
2023-05-09T07:27:22.956Z,461.00
2023-05-09T07:28:23.840Z,460.00
2023-05-09T07:29:24.766Z,462.00
2023-05-09T07:30:25.688Z,457.00
2023-05-09T07:31:26.605Z,466.00
2023-05-09T07:32:27.619Z,467.00
2023-05-09T07:33:28.093Z,467.00
2023-05-09T07:34:31.450Z,460.00
2023-05-09T07:35:29.788Z,458.00
2023-05-09T07:36:30.677Z,459.00
2023-05-09T07:37:31.557Z,458.00
2023-05-09T07:38:32.520Z,459.00
2023-05-09T07:39:33.497Z,457.00
2023-05-09T07:40:34.326Z,458.00
2023-05-09T07:41:35.213Z,461.00
2023-05-09T07:42:36.084Z,467.00
2023-05-09T07:43:37.017Z,463.00
2023-05-09T07:44:37.925Z,458.00
2023-05-09T07:45:38.830Z,454.00
2023-05-09T07:46:39.718Z,454.00
2023-05-09T07:47:40.629Z,453.00
2023-05-09T07:48:41.552Z,454.00
2023-05-09T07:49:42.146Z,455.00
2023-05-09T07:50:43.453Z,457.00
2023-05-09T07:51:43.677Z,455.00
2023-05-09T07:52:44.939Z,455.00
2023-05-09T07:53:45.150Z,452.00
2023-05-09T07:54:45.988Z,453.00
2023-05-09T07:55:46.470Z,454.00
2023-05-09T07:56:47.511Z,454.00
2023-05-09T07:57:48.223Z,452.00
2023-05-09T07:58:48.595Z,452.00
2023-05-09T07:59:49.612Z,452.00
2023-05-09T08:00:50.316Z,452.00
2023-05-09T08:01:50.945Z,454.00
2023-05-09T08:02:51.614Z,455.00
2023-05-09T08:03:52.186Z,455.00
2023-05-09T08:04:54.177Z,456.00
2023-05-09T08:05:53.783Z,454.00
2023-05-09T08:06:54.263Z,462.00
2023-05-09T08:07:55.208Z,458.00
2023-05-09T08:08:56.112Z,457.00
2023-05-09T08:09:57.030Z,459.00
2023-05-09T08:10:58.139Z,459.00
2023-05-09T08:11:58.602Z,459.00
2023-05-09T08:12:59.717Z,457.00
2023-05-09T08:14:00.141Z,456.00
2023-05-09T08:15:01.211Z,453.00
2023-05-09T08:16:01.899Z,455.00
2023-05-09T08:17:02.430Z,453.00
2023-05-09T08:18:03.629Z,457.00
2023-05-09T08:19:04.229Z,457.00
2023-05-09T08:20:12.334Z,460.00
2023-05-09T08:21:06.587Z,457.00
2023-05-09T08:22:07.027Z,458.00
2023-05-09T08:23:07.249Z,458.00
2023-05-09T08:24:08.947Z,453.00
2023-05-09T08:25:08.488Z,452.00
2023-05-09T08:26:10.192Z,449.00
2023-05-09T08:27:10.246Z,453.00
2023-05-09T08:28:10.447Z,454.00
2023-05-09T08:29:10.977Z,450.00
2023-05-09T08:30:11.493Z,449.00
2023-05-09T08:31:12.329Z,448.00
2023-05-09T08:32:12.822Z,450.00
2023-05-09T08:33:13.988Z,447.00
2023-05-09T08:34:15.005Z,447.00
2023-05-09T08:35:15.318Z,447.00
2023-05-09T08:36:15.541Z,446.00
2023-05-09T08:37:16.326Z,447.00
2023-05-09T08:38:17.000Z,451.00
2023-05-09T08:39:17.567Z,454.00
2023-05-09T08:40:19.041Z,454.00
2023-05-09T08:41:18.904Z,452.00
2023-05-09T08:42:19.884Z,453.00
2023-05-09T08:43:20.536Z,455.00
2023-05-09T08:44:21.167Z,454.00
2023-05-09T08:45:21.767Z,453.00
2023-05-09T08:46:22.365Z,445.00
2023-05-09T08:47:23.078Z,448.00
2023-05-09T08:48:23.773Z,451.00
2023-05-09T08:49:24.442Z,448.00
2023-05-09T08:50:24.970Z,450.00
2023-05-09T08:51:25.439Z,450.00
2023-05-09T08:52:26.471Z,446.00
2023-05-09T08:53:26.903Z,449.00
2023-05-09T08:54:27.990Z,450.00
2023-05-09T08:55:28.696Z,449.00
2023-05-09T08:56:29.552Z,453.00
2023-05-09T08:57:30.095Z,451.00
2023-05-09T08:58:30.721Z,449.00
2023-05-09T08:59:32.010Z,449.00
2023-05-09T09:00:32.526Z,452.00
2023-05-09T09:01:33.150Z,448.00
2023-05-09T09:02:33.619Z,451.00
2023-05-09T09:03:35.789Z,450.00
2023-05-09T09:04:35.331Z,451.00
2023-05-09T09:05:42.020Z,455.00
2023-05-09T09:06:37.784Z,448.00
2023-05-09T09:07:37.178Z,448.00
2023-05-09T09:08:38.077Z,449.00
2023-05-09T09:09:39.015Z,446.00
2023-05-09T09:10:40.523Z,441.00
2023-05-09T09:11:40.997Z,449.00
2023-05-09T09:12:41.559Z,449.00
2023-05-09T09:13:42.529Z,444.00
2023-05-09T09:14:43.057Z,441.00
2023-05-09T09:15:43.757Z,444.00
2023-05-09T09:16:44.319Z,446.00
2023-05-09T09:17:44.814Z,443.00
2023-05-09T09:18:45.766Z,442.00
2023-05-09T09:19:46.473Z,445.00
2023-05-09T09:20:46.979Z,448.00
2023-05-09T09:21:47.387Z,448.00
2023-05-09T09:22:48.367Z,453.00
2023-05-09T09:23:49.302Z,452.00
2023-05-09T09:24:49.808Z,453.00
2023-05-09T09:25:50.800Z,455.00
2023-05-09T09:26:51.772Z,454.00
2023-05-09T09:27:52.299Z,457.00
2023-05-09T09:28:52.832Z,458.00
2023-05-09T09:29:53.782Z,458.00
2023-05-09T09:30:54.848Z,454.00
2023-05-09T09:31:55.410Z,452.00
2023-05-09T09:32:55.867Z,450.00
2023-05-09T09:33:56.811Z,454.00
2023-05-09T09:34:57.719Z,458.00
2023-05-09T09:35:58.747Z,461.00
2023-05-09T09:36:59.596Z,462.00
2023-05-09T09:38:00.630Z,461.00
2023-05-09T09:39:01.678Z,466.00
2023-05-09T09:40:01.894Z,462.00
2023-05-09T09:41:03.023Z,461.00
2023-05-09T09:42:03.123Z,458.00
2023-05-09T09:43:03.657Z,458.00
2023-05-09T09:44:05.111Z,460.00
2023-05-09T09:45:05.268Z,466.00
2023-05-09T09:46:06.222Z,465.00
2023-05-09T09:47:06.840Z,463.00
2023-05-09T09:48:07.430Z,457.00
2023-05-09T09:49:07.800Z,455.00
2023-05-09T09:50:08.772Z,459.00
2023-05-09T09:51:11.103Z,444.00
2023-05-09T09:52:10.623Z,472.00
2023-05-09T09:53:11.168Z,459.00
2023-05-09T09:54:12.076Z,455.00
2023-05-09T09:55:13.123Z,452.00
2023-05-09T09:56:13.535Z,452.00
2023-05-09T09:57:14.477Z,449.00
2023-05-09T09:58:15.396Z,449.00
2023-05-09T09:59:16.340Z,448.00
2023-05-09T10:00:17.512Z,450.00
2023-05-09T10:01:18.281Z,449.00
2023-05-09T10:02:18.708Z,447.00
2023-05-09T10:03:19.662Z,448.00
2023-05-09T10:04:20.516Z,447.00
2023-05-09T10:05:21.446Z,448.00
2023-05-09T10:06:22.110Z,449.00
2023-05-09T10:07:22.444Z,450.00
2023-05-09T10:08:23.387Z,451.00
2023-05-09T10:09:24.274Z,453.00
2023-05-09T10:10:25.223Z,454.00
2023-05-09T10:11:26.196Z,448.00
2023-05-09T10:12:27.106Z,443.00
2023-05-09T10:13:28.033Z,443.00
2023-05-09T10:14:28.905Z,445.00
2023-05-09T10:15:33.494Z,444.00
2023-05-09T10:16:40.181Z,445.00
2023-05-09T10:17:32.591Z,447.00
2023-05-09T10:18:32.304Z,445.00
2023-05-09T10:19:32.854Z,446.00
2023-05-09T10:20:33.769Z,448.00
2023-05-09T10:21:36.198Z,446.00
2023-05-09T10:22:36.507Z,444.00
2023-05-09T10:23:36.342Z,441.00
2023-05-09T10:24:37.646Z,443.00
2023-05-09T10:25:38.159Z,441.00
2023-05-09T10:26:39.153Z,440.00
2023-05-09T10:27:40.090Z,442.00
2023-05-09T10:28:41.035Z,439.00
2023-05-09T10:29:41.938Z,440.00
2023-05-09T10:30:42.689Z,443.00
2023-05-09T10:31:43.696Z,454.00
2023-05-09T10:32:45.526Z,452.00
2023-05-09T10:33:45.441Z,450.00
2023-05-09T10:34:46.325Z,449.00
2023-05-09T10:35:47.259Z,446.00
2023-05-09T10:36:48.574Z,444.00
2023-05-09T10:37:48.926Z,443.00
2023-05-09T10:38:49.806Z,444.00
2023-05-09T10:39:51.529Z,445.00
2023-05-09T10:40:51.440Z,443.00
2023-05-09T10:41:53.321Z,444.00
2023-05-09T10:42:52.798Z,447.00
2023-05-09T10:43:54.535Z,441.00
2023-05-09T10:44:54.555Z,438.00
2023-05-09T10:45:55.414Z,441.00
2023-05-09T10:46:57.115Z,441.00
2023-05-09T10:47:57.038Z,442.00
2023-05-09T10:48:57.987Z,437.00
2023-05-09T10:49:58.895Z,433.00
2023-05-09T10:50:59.781Z,437.00
2023-05-09T10:52:01.042Z,440.00
2023-05-09T10:53:01.411Z,438.00
2023-05-09T10:54:02.296Z,437.00
2023-05-09T10:55:03.200Z,435.00
2023-05-09T10:56:04.153Z,433.00
2023-05-09T10:57:05.587Z,431.00
2023-05-09T10:58:06.962Z,433.00
2023-05-09T10:59:06.838Z,432.00
2023-05-09T11:00:07.725Z,436.00
2023-05-09T11:01:08.783Z,436.00
2023-05-09T11:02:09.676Z,435.00
2023-05-09T11:03:10.651Z,436.00
2023-05-09T11:04:11.607Z,439.00
2023-05-09T11:05:12.646Z,440.00
2023-05-09T11:06:13.157Z,442.00
2023-05-09T11:07:14.212Z,441.00
2023-05-09T11:08:14.546Z,448.00
2023-05-09T11:09:16.009Z,447.00
2023-05-09T11:10:16.506Z,446.00
2023-05-09T11:11:17.391Z,444.00
2023-05-09T11:12:18.313Z,444.00
2023-05-09T11:13:19.266Z,442.00
2023-05-09T11:14:21.047Z,445.00
2023-05-09T11:15:20.967Z,445.00
2023-05-09T11:16:21.877Z,444.00
2023-05-09T11:17:23.034Z,444.00
2023-05-09T11:18:23.473Z,442.00
2023-05-09T11:19:24.382Z,444.00
2023-05-09T11:20:25.304Z,442.00
2023-05-09T11:21:26.176Z,439.00
2023-05-09T11:22:27.176Z,438.00
2023-05-09T11:23:28.015Z,444.00
2023-05-09T11:24:28.906Z,445.00
2023-05-09T11:25:29.800Z,446.00
2023-05-09T11:26:30.761Z,449.00
2023-05-09T11:27:31.647Z,446.00
2023-05-09T11:28:32.593Z,449.00
2023-05-09T11:29:33.526Z,450.00
2023-05-09T11:30:34.434Z,455.00
2023-05-09T11:31:35.904Z,455.00
2023-05-09T11:32:36.361Z,456.00
2023-05-09T11:33:37.205Z,454.00
2023-05-09T11:34:38.429Z,452.00
2023-05-09T11:35:38.783Z,446.00
2023-05-09T11:36:39.746Z,443.00
2023-05-09T11:37:41.578Z,443.00
2023-05-09T11:38:41.512Z,442.00
2023-05-09T11:39:42.501Z,440.00
2023-05-09T11:40:43.426Z,441.00
2023-05-09T11:41:44.332Z,441.00
2023-05-09T11:42:45.239Z,440.00
2023-05-09T11:43:46.222Z,439.00
2023-05-09T11:44:46.792Z,441.00
2023-05-09T11:45:47.676Z,439.00
2023-05-09T11:46:49.052Z,440.00
2023-05-09T11:47:49.482Z,441.00
2023-05-09T11:48:50.318Z,439.00
2023-05-09T11:49:51.222Z,439.00
2023-05-09T11:50:52.114Z,443.00
2023-05-09T11:51:52.988Z,442.00
2023-05-09T11:52:54.404Z,442.00
2023-05-09T11:53:54.750Z,440.00
2023-05-09T11:54:55.628Z,442.00
2023-05-09T11:55:56.550Z,444.00
2023-05-09T11:56:58.054Z,442.00
2023-05-09T11:57:57.990Z,436.00
2023-05-09T11:58:58.863Z,435.00
2023-05-09T11:59:59.786Z,445.00
2023-05-09T12:01:00.719Z,444.00
2023-05-09T12:02:01.604Z,447.00
2023-05-09T12:03:02.617Z,443.00
2023-05-09T12:04:03.170Z,436.00
2023-05-09T12:05:03.599Z,451.00
2023-05-09T12:06:04.504Z,443.00
2023-05-09T12:07:05.382Z,441.00
2023-05-09T12:08:06.426Z,438.00
2023-05-09T12:09:07.251Z,437.00
2023-05-09T12:10:08.219Z,438.00
2023-05-09T12:11:09.080Z,436.00
2023-05-09T12:12:09.963Z,432.00
2023-05-09T12:13:10.930Z,432.00
2023-05-09T12:14:11.826Z,434.00
2023-05-09T12:15:12.834Z,433.00
2023-05-09T12:16:13.269Z,436.00
2023-05-09T12:17:14.152Z,437.00
2023-05-09T12:18:15.203Z,439.00
2023-05-09T12:19:15.563Z,440.00
2023-05-09T12:20:17.049Z,440.00
2023-05-09T12:21:18.086Z,437.00
2023-05-09T12:24:02.658Z,430.00
2023-05-09T12:25:02.991Z,421.00
2023-05-09T12:26:03.873Z,431.00
2023-05-09T12:27:04.766Z,430.00
2023-05-09T12:28:05.627Z,430.00
2023-05-09T12:29:06.532Z,427.00
2023-05-09T12:30:07.747Z,429.00
2023-05-09T12:31:08.207Z,430.00
2023-05-09T12:32:09.098Z,432.00
2023-05-09T12:33:10.036Z,430.00
2023-05-09T12:34:10.938Z,436.00
2023-05-09T12:35:11.826Z,429.00
2023-05-09T12:36:12.703Z,428.00
2023-05-09T12:37:13.950Z,422.00
2023-05-09T12:38:14.337Z,419.00
2023-05-09T12:39:15.350Z,419.00
2023-05-09T12:40:16.181Z,422.00